sensor_id;sensor_type;location;lat;lon;timestamp;P1;durP1;ratioP1;P2;durP2;ratioP2
27517;SDS011;14962;52.482;13.142;2024-02-21T00:01:59;19.50;;;4.30;;
27517;SDS011;14962;52.482;13.142;2024-02-21T00:04:25;15.73;;;4.22;;
27517;SDS011;14962;52.482;13.142;2024-02-21T00:06:51;12.90;;;4.40;;
27517;SDS011;14962;52.482;13.142;2024-02-21T00:09:17;21.30;;;4.70;;
27517;SDS011;14962;52.482;13.142;2024-02-21T00:11:44;16.42;;;4.07;;
27517;SDS011;14962;52.482;13.142;2024-02-21T00:14:10;13.25;;;3.70;;
27517;SDS011;14962;52.482;13.142;2024-02-21T00:16:36;13.75;;;3.95;;
27517;SDS011;14962;52.482;13.142;2024-02-21T00:19:02;17.38;;;4.28;;
27517;SDS011;14962;52.482;13.142;2024-02-21T00:21:28;13.10;;;3.40;;
27517;SDS011;14962;52.482;13.142;2024-02-21T00:23:54;19.58;;;3.85;;
27517;SDS011;14962;52.482;13.142;2024-02-21T00:26:20;15.60;;;3.42;;
27517;SDS011;14962;52.482;13.142;2024-02-21T00:28:46;11.38;;;4.00;;
27517;SDS011;14962;52.482;13.142;2024-02-21T00:31:12;15.27;;;4.20;;
27517;SDS011;14962;52.482;13.142;2024-02-21T00:33:39;9.38;;;2.90;;
27517;SDS011;14962;52.482;13.142;2024-02-21T00:36:04;12.48;;;3.83;;
27517;SDS011;14962;52.482;13.142;2024-02-21T00:38:30;11.75;;;3.78;;
27517;SDS011;14962;52.482;13.142;2024-02-21T00:40:56;16.60;;;3.90;;
27517;SDS011;14962;52.482;13.142;2024-02-21T00:43:22;16.75;;;4.00;;
27517;SDS011;14962;52.482;13.142;2024-02-21T00:45:49;11.90;;;3.35;;
27517;SDS011;14962;52.482;13.142;2024-02-21T00:48:15;20.50;;;4.22;;
27517;SDS011;14962;52.482;13.142;2024-02-21T00:50:41;20.60;;;4.07;;
27517;SDS011;14962;52.482;13.142;2024-02-21T00:53:07;12.95;;;4.20;;
27517;SDS011;14962;52.482;13.142;2024-02-21T00:55:34;10.68;;;3.80;;
27517;SDS011;14962;52.482;13.142;2024-02-21T00:58:00;16.02;;;4.45;;
27517;SDS011;14962;52.482;13.142;2024-02-21T01:00:26;15.45;;;3.80;;
27517;SDS011;14962;52.482;13.142;2024-02-21T01:02:52;16.13;;;4.88;;
27517;SDS011;14962;52.482;13.142;2024-02-21T01:05:18;14.68;;;4.15;;
27517;SDS011;14962;52.482;13.142;2024-02-21T01:07:45;16.10;;;3.70;;
27517;SDS011;14962;52.482;13.142;2024-02-21T01:10:11;22.73;;;4.13;;
27517;SDS011;14962;52.482;13.142;2024-02-21T01:12:37;17.85;;;5.22;;
27517;SDS011;14962;52.482;13.142;2024-02-21T01:15:03;11.55;;;3.60;;
27517;SDS011;14962;52.482;13.142;2024-02-21T01:17:29;11.00;;;3.95;;
27517;SDS011;14962;52.482;13.142;2024-02-21T01:19:55;14.65;;;3.58;;
27517;SDS011;14962;52.482;13.142;2024-02-21T01:22:21;16.23;;;3.88;;
27517;SDS011;14962;52.482;13.142;2024-02-21T01:24:47;15.27;;;4.70;;
27517;SDS011;14962;52.482;13.142;2024-02-21T01:27:13;15.60;;;3.45;;
27517;SDS011;14962;52.482;13.142;2024-02-21T01:29:39;23.10;;;4.53;;
27517;SDS011;14962;52.482;13.142;2024-02-21T01:32:05;17.88;;;4.55;;
27517;SDS011;14962;52.482;13.142;2024-02-21T01:34:31;15.82;;;4.15;;
27517;SDS011;14962;52.482;13.142;2024-02-21T01:36:57;17.25;;;4.72;;
27517;SDS011;14962;52.482;13.142;2024-02-21T01:39:24;12.70;;;3.88;;
27517;SDS011;14962;52.482;13.142;2024-02-21T01:41:50;12.25;;;4.13;;
27517;SDS011;14962;52.482;13.142;2024-02-21T01:44:16;13.10;;;3.83;;
27517;SDS011;14962;52.482;13.142;2024-02-21T01:46:42;12.55;;;3.53;;
27517;SDS011;14962;52.482;13.142;2024-02-21T01:49:08;13.07;;;4.57;;
27517;SDS011;14962;52.482;13.142;2024-02-21T01:51:34;24.58;;;3.90;;
27517;SDS011;14962;52.482;13.142;2024-02-21T01:54:00;16.88;;;4.18;;
27517;SDS011;14962;52.482;13.142;2024-02-21T01:56:26;12.10;;;3.97;;
27517;SDS011;14962;52.482;13.142;2024-02-21T01:58:52;20.73;;;4.82;;
27517;SDS011;14962;52.482;13.142;2024-02-21T02:01:19;17.80;;;4.95;;
27517;SDS011;14962;52.482;13.142;2024-02-21T02:03:45;12.48;;;3.80;;
27517;SDS011;14962;52.482;13.142;2024-02-21T02:06:11;13.52;;;4.65;;
27517;SDS011;14962;52.482;13.142;2024-02-21T02:08:38;20.95;;;4.00;;
27517;SDS011;14962;52.482;13.142;2024-02-21T02:11:04;15.15;;;4.88;;
27517;SDS011;14962;52.482;13.142;2024-02-21T02:13:30;14.38;;;4.75;;
27517;SDS011;14962;52.482;13.142;2024-02-21T02:15:56;18.88;;;3.83;;
27517;SDS011;14962;52.482;13.142;2024-02-21T02:18:22;23.08;;;4.60;;
27517;SDS011;14962;52.482;13.142;2024-02-21T02:20:48;20.98;;;5.10;;
27517;SDS011;14962;52.482;13.142;2024-02-21T02:23:21;12.68;;;3.63;;
27517;SDS011;14962;52.482;13.142;2024-02-21T02:25:47;18.85;;;4.53;;
27517;SDS011;14962;52.482;13.142;2024-02-21T02:28:14;14.80;;;4.28;;
27517;SDS011;14962;52.482;13.142;2024-02-21T02:30:41;11.45;;;4.55;;
27517;SDS011;14962;52.482;13.142;2024-02-21T02:33:06;22.95;;;4.50;;
27517;SDS011;14962;52.482;13.142;2024-02-21T02:35:32;19.25;;;4.68;;
27517;SDS011;14962;52.482;13.142;2024-02-21T02:38:00;15.98;;;4.53;;
27517;SDS011;14962;52.482;13.142;2024-02-21T02:40:26;22.38;;;4.95;;
27517;SDS011;14962;52.482;13.142;2024-02-21T02:42:52;14.73;;;4.30;;
27517;SDS011;14962;52.482;13.142;2024-02-21T02:45:20;18.90;;;4.70;;
27517;SDS011;14962;52.482;13.142;2024-02-21T02:47:48;25.42;;;4.60;;
27517;SDS011;14962;52.482;13.142;2024-02-21T02:50:14;20.35;;;4.60;;
27517;SDS011;14962;52.482;13.142;2024-02-21T02:52:40;13.15;;;4.88;;
27517;SDS011;14962;52.482;13.142;2024-02-21T02:55:06;14.50;;;4.25;;
27517;SDS011;14962;52.482;13.142;2024-02-21T02:57:32;19.10;;;6.05;;
27517;SDS011;14962;52.482;13.142;2024-02-21T02:59:58;17.60;;;4.90;;
27517;SDS011;14962;52.482;13.142;2024-02-21T03:02:24;19.25;;;5.43;;
27517;SDS011;14962;52.482;13.142;2024-02-21T03:04:50;22.48;;;5.25;;
27517;SDS011;14962;52.482;13.142;2024-02-21T03:07:16;15.82;;;4.93;;
27517;SDS011;14962;52.482;13.142;2024-02-21T03:09:42;16.27;;;5.75;;
27517;SDS011;14962;52.482;13.142;2024-02-21T03:12:08;13.02;;;5.20;;
27517;SDS011;14962;52.482;13.142;2024-02-21T03:14:34;18.20;;;5.80;;
27517;SDS011;14962;52.482;13.142;2024-02-21T03:17:01;21.42;;;5.45;;
27517;SDS011;14962;52.482;13.142;2024-02-21T03:19:27;20.17;;;5.22;;
27517;SDS011;14962;52.482;13.142;2024-02-21T03:21:54;18.25;;;5.15;;
27517;SDS011;14962;52.482;13.142;2024-02-21T03:24:20;24.55;;;5.72;;
27517;SDS011;14962;52.482;13.142;2024-02-21T03:26:46;17.25;;;5.45;;
27517;SDS011;14962;52.482;13.142;2024-02-21T03:29:14;19.45;;;5.35;;
27517;SDS011;14962;52.482;13.142;2024-02-21T03:31:40;26.85;;;5.90;;
27517;SDS011;14962;52.482;13.142;2024-02-21T03:34:06;19.83;;;5.40;;
27517;SDS011;14962;52.482;13.142;2024-02-21T03:36:32;22.73;;;5.70;;
27517;SDS011;14962;52.482;13.142;2024-02-21T03:38:58;25.90;;;6.65;;
27517;SDS011;14962;52.482;13.142;2024-02-21T03:41:24;17.48;;;5.93;;
27517;SDS011;14962;52.482;13.142;2024-02-21T03:43:50;21.90;;;5.72;;
27517;SDS011;14962;52.482;13.142;2024-02-21T03:46:16;22.40;;;5.53;;
27517;SDS011;14962;52.482;13.142;2024-02-21T03:48:42;20.02;;;6.03;;
27517;SDS011;14962;52.482;13.142;2024-02-21T03:51:08;20.40;;;6.90;;
27517;SDS011;14962;52.482;13.142;2024-02-21T03:53:34;19.08;;;5.90;;
27517;SDS011;14962;52.482;13.142;2024-02-21T03:56:03;20.45;;;5.90;;
27517;SDS011;14962;52.482;13.142;2024-02-21T03:58:29;20.48;;;5.55;;
27517;SDS011;14962;52.482;13.142;2024-02-21T04:00:55;19.58;;;5.60;;
27517;SDS011;14962;52.482;13.142;2024-02-21T04:03:22;16.80;;;5.53;;
27517;SDS011;14962;52.482;13.142;2024-02-21T04:05:48;26.00;;;6.20;;
27517;SDS011;14962;52.482;13.142;2024-02-21T04:08:14;24.52;;;5.95;;
27517;SDS011;14962;52.482;13.142;2024-02-21T04:10:40;20.52;;;5.60;;
27517;SDS011;14962;52.482;13.142;2024-02-21T04:13:06;15.55;;;6.03;;
27517;SDS011;14962;52.482;13.142;2024-02-21T04:15:32;19.35;;;5.80;;
27517;SDS011;14962;52.482;13.142;2024-02-21T04:17:58;13.43;;;5.50;;
27517;SDS011;14962;52.482;13.142;2024-02-21T04:20:24;18.05;;;6.32;;
27517;SDS011;14962;52.482;13.142;2024-02-21T04:22:51;28.33;;;6.95;;
27517;SDS011;14962;52.482;13.142;2024-02-21T04:25:17;18.33;;;6.18;;
27517;SDS011;14962;52.482;13.142;2024-02-21T04:27:44;23.48;;;6.00;;
27517;SDS011;14962;52.482;13.142;2024-02-21T04:30:10;23.13;;;6.07;;
27517;SDS011;14962;52.482;13.142;2024-02-21T04:32:36;18.52;;;6.88;;
27517;SDS011;14962;52.482;13.142;2024-02-21T04:35:02;16.52;;;5.82;;
27517;SDS011;14962;52.482;13.142;2024-02-21T04:37:28;25.40;;;6.50;;
27517;SDS011;14962;52.482;13.142;2024-02-21T04:39:54;20.42;;;6.40;;
27517;SDS011;14962;52.482;13.142;2024-02-21T04:42:20;19.73;;;7.03;;
27517;SDS011;14962;52.482;13.142;2024-02-21T04:44:46;18.20;;;6.57;;
27517;SDS011;14962;52.482;13.142;2024-02-21T04:47:12;21.25;;;6.07;;
27517;SDS011;14962;52.482;13.142;2024-02-21T04:49:38;20.35;;;5.50;;
27517;SDS011;14962;52.482;13.142;2024-02-21T04:52:04;19.77;;;5.63;;
27517;SDS011;14962;52.482;13.142;2024-02-21T04:54:30;15.82;;;6.53;;
27517;SDS011;14962;52.482;13.142;2024-02-21T04:56:56;25.35;;;6.22;;
27517;SDS011;14962;52.482;13.142;2024-02-21T04:59:22;21.65;;;6.55;;
27517;SDS011;14962;52.482;13.142;2024-02-21T05:01:48;26.17;;;7.10;;
27517;SDS011;14962;52.482;13.142;2024-02-21T05:04:14;23.50;;;6.30;;
27517;SDS011;14962;52.482;13.142;2024-02-21T05:06:40;20.77;;;7.03;;
27517;SDS011;14962;52.482;13.142;2024-02-21T05:09:07;17.88;;;5.93;;
27517;SDS011;14962;52.482;13.142;2024-02-21T05:11:36;22.55;;;6.97;;
27517;SDS011;14962;52.482;13.142;2024-02-21T05:14:05;18.25;;;6.75;;
27517;SDS011;14962;52.482;13.142;2024-02-21T05:16:31;23.70;;;7.35;;
27517;SDS011;14962;52.482;13.142;2024-02-21T05:18:57;21.20;;;5.53;;
27517;SDS011;14962;52.482;13.142;2024-02-21T05:21:23;15.07;;;5.50;;
27517;SDS011;14962;52.482;13.142;2024-02-21T05:23:50;21.10;;;6.78;;
27517;SDS011;14962;52.482;13.142;2024-02-21T05:26:22;15.23;;;5.97;;
27517;SDS011;14962;52.482;13.142;2024-02-21T05:28:48;19.92;;;7.07;;
27517;SDS011;14962;52.482;13.142;2024-02-21T05:31:18;23.00;;;7.28;;
27517;SDS011;14962;52.482;13.142;2024-02-21T05:33:44;23.40;;;7.10;;
27517;SDS011;14962;52.482;13.142;2024-02-21T05:36:10;30.00;;;7.60;;
27517;SDS011;14962;52.482;13.142;2024-02-21T05:38:36;23.70;;;7.65;;
27517;SDS011;14962;52.482;13.142;2024-02-21T05:41:02;19.02;;;6.82;;
27517;SDS011;14962;52.482;13.142;2024-02-21T05:43:28;22.95;;;7.80;;
27517;SDS011;14962;52.482;13.142;2024-02-21T05:45:54;25.35;;;6.53;;
27517;SDS011;14962;52.482;13.142;2024-02-21T05:48:21;24.48;;;7.13;;
27517;SDS011;14962;52.482;13.142;2024-02-21T05:50:47;21.00;;;6.72;;
27517;SDS011;14962;52.482;13.142;2024-02-21T05:53:13;23.25;;;7.13;;
27517;SDS011;14962;52.482;13.142;2024-02-21T05:55:39;29.95;;;8.82;;
27517;SDS011;14962;52.482;13.142;2024-02-21T05:58:06;25.48;;;8.20;;
27517;SDS011;14962;52.482;13.142;2024-02-21T06:00:32;17.27;;;6.90;;
27517;SDS011;14962;52.482;13.142;2024-02-21T06:02:58;25.90;;;7.85;;
27517;SDS011;14962;52.482;13.142;2024-02-21T06:05:24;21.70;;;8.80;;
27517;SDS011;14962;52.482;13.142;2024-02-21T06:07:50;27.45;;;8.13;;
27517;SDS011;14962;52.482;13.142;2024-02-21T06:10:16;22.65;;;8.00;;
27517;SDS011;14962;52.482;13.142;2024-02-21T06:12:42;19.58;;;6.85;;
27517;SDS011;14962;52.482;13.142;2024-02-21T06:15:08;24.50;;;8.25;;
27517;SDS011;14962;52.482;13.142;2024-02-21T06:17:34;24.10;;;7.78;;
27517;SDS011;14962;52.482;13.142;2024-02-21T06:20:00;20.23;;;7.72;;
27517;SDS011;14962;52.482;13.142;2024-02-21T06:22:26;23.38;;;7.57;;
27517;SDS011;14962;52.482;13.142;2024-02-21T06:24:52;21.00;;;7.43;;
27517;SDS011;14962;52.482;13.142;2024-02-21T06:27:19;20.48;;;7.93;;
27517;SDS011;14962;52.482;13.142;2024-02-21T06:29:45;26.20;;;7.65;;
27517;SDS011;14962;52.482;13.142;2024-02-21T06:32:11;19.60;;;8.40;;
27517;SDS011;14962;52.482;13.142;2024-02-21T06:34:37;24.95;;;8.52;;
27517;SDS011;14962;52.482;13.142;2024-02-21T06:37:03;24.35;;;7.38;;
27517;SDS011;14962;52.482;13.142;2024-02-21T06:39:29;19.13;;;8.05;;
27517;SDS011;14962;52.482;13.142;2024-02-21T06:41:55;27.25;;;8.82;;
27517;SDS011;14962;52.482;13.142;2024-02-21T06:44:21;18.92;;;7.45;;
27517;SDS011;14962;52.482;13.142;2024-02-21T06:46:47;23.33;;;8.40;;
27517;SDS011;14962;52.482;13.142;2024-02-21T06:49:13;29.02;;;8.02;;
27517;SDS011;14962;52.482;13.142;2024-02-21T06:51:44;22.67;;;7.93;;
27517;SDS011;14962;52.482;13.142;2024-02-21T06:54:10;23.55;;;8.73;;
27517;SDS011;14962;52.482;13.142;2024-02-21T06:56:36;22.92;;;8.57;;
27517;SDS011;14962;52.482;13.142;2024-02-21T06:59:03;25.08;;;7.82;;
27517;SDS011;14962;52.482;13.142;2024-02-21T07:01:29;25.10;;;8.27;;
27517;SDS011;14962;52.482;13.142;2024-02-21T07:03:55;21.20;;;8.65;;
27517;SDS011;14962;52.482;13.142;2024-02-21T07:06:22;21.20;;;7.63;;
27517;SDS011;14962;52.482;13.142;2024-02-21T07:08:48;15.93;;;7.63;;
27517;SDS011;14962;52.482;13.142;2024-02-21T07:11:13;19.45;;;7.15;;
27517;SDS011;14962;52.482;13.142;2024-02-21T07:13:39;23.13;;;7.03;;
27517;SDS011;14962;52.482;13.142;2024-02-21T07:16:06;20.80;;;8.23;;
27517;SDS011;14962;52.482;13.142;2024-02-21T07:18:32;25.00;;;8.27;;
27517;SDS011;14962;52.482;13.142;2024-02-21T07:20:58;17.92;;;7.57;;
27517;SDS011;14962;52.482;13.142;2024-02-21T07:23:24;17.70;;;7.68;;
27517;SDS011;14962;52.482;13.142;2024-02-21T07:25:50;19.17;;;7.55;;
27517;SDS011;14962;52.482;13.142;2024-02-21T07:28:16;24.15;;;7.28;;
27517;SDS011;14962;52.482;13.142;2024-02-21T07:30:42;16.88;;;7.13;;
27517;SDS011;14962;52.482;13.142;2024-02-21T07:33:08;13.05;;;6.13;;
27517;SDS011;14962;52.482;13.142;2024-02-21T07:35:34;22.63;;;6.28;;
27517;SDS011;14962;52.482;13.142;2024-02-21T07:38:05;17.65;;;6.93;;
27517;SDS011;14962;52.482;13.142;2024-02-21T07:40:32;21.20;;;6.65;;
27517;SDS011;14962;52.482;13.142;2024-02-21T07:42:58;19.38;;;6.47;;
27517;SDS011;14962;52.482;13.142;2024-02-21T07:45:24;17.65;;;6.28;;
27517;SDS011;14962;52.482;13.142;2024-02-21T07:47:50;15.13;;;6.65;;
27517;SDS011;14962;52.482;13.142;2024-02-21T07:50:16;18.75;;;7.20;;
27517;SDS011;14962;52.482;13.142;2024-02-21T07:52:42;12.35;;;5.70;;
27517;SDS011;14962;52.482;13.142;2024-02-21T07:55:08;19.02;;;6.28;;
27517;SDS011;14962;52.482;13.142;2024-02-21T07:57:37;14.43;;;6.90;;
27517;SDS011;14962;52.482;13.142;2024-02-21T08:00:03;13.98;;;5.63;;
27517;SDS011;14962;52.482;13.142;2024-02-21T08:02:29;18.55;;;5.80;;
27517;SDS011;14962;52.482;13.142;2024-02-21T08:04:56;20.55;;;6.03;;
27517;SDS011;14962;52.482;13.142;2024-02-21T08:07:22;17.40;;;5.93;;
27517;SDS011;14962;52.482;13.142;2024-02-21T08:09:47;25.35;;;6.82;;
27517;SDS011;14962;52.482;13.142;2024-02-21T08:12:13;17.30;;;6.70;;
27517;SDS011;14962;52.482;13.142;2024-02-21T08:14:39;16.10;;;5.90;;
27517;SDS011;14962;52.482;13.142;2024-02-21T08:17:05;21.50;;;6.20;;
27517;SDS011;14962;52.482;13.142;2024-02-21T08:19:31;25.23;;;6.45;;
27517;SDS011;14962;52.482;13.142;2024-02-21T08:21:58;13.93;;;7.13;;
27517;SDS011;14962;52.482;13.142;2024-02-21T08:24:24;24.00;;;7.03;;
27517;SDS011;14962;52.482;13.142;2024-02-21T08:26:49;15.25;;;6.38;;
27517;SDS011;14962;52.482;13.142;2024-02-21T08:29:15;14.30;;;5.50;;
27517;SDS011;14962;52.482;13.142;2024-02-21T08:31:42;13.90;;;6.53;;
27517;SDS011;14962;52.482;13.142;2024-02-21T08:34:07;13.57;;;6.93;;
27517;SDS011;14962;52.482;13.142;2024-02-21T08:36:34;19.83;;;7.80;;
27517;SDS011;14962;52.482;13.142;2024-02-21T08:39:00;17.52;;;7.57;;
27517;SDS011;14962;52.482;13.142;2024-02-21T08:41:30;16.42;;;7.38;;
27517;SDS011;14962;52.482;13.142;2024-02-21T08:43:56;19.70;;;7.30;;
27517;SDS011;14962;52.482;13.142;2024-02-21T08:46:22;16.60;;;6.65;;
27517;SDS011;14962;52.482;13.142;2024-02-21T08:48:49;15.82;;;7.18;;
27517;SDS011;14962;52.482;13.142;2024-02-21T08:51:15;25.98;;;8.65;;
27517;SDS011;14962;52.482;13.142;2024-02-21T08:53:41;16.77;;;7.57;;
27517;SDS011;14962;52.482;13.142;2024-02-21T08:56:07;20.60;;;7.93;;
27517;SDS011;14962;52.482;13.142;2024-02-21T08:58:33;18.75;;;7.63;;
27517;SDS011;14962;52.482;13.142;2024-02-21T09:00:59;24.27;;;6.80;;
27517;SDS011;14962;52.482;13.142;2024-02-21T09:03:25;21.23;;;7.50;;
27517;SDS011;14962;52.482;13.142;2024-02-21T09:05:52;20.90;;;8.35;;
27517;SDS011;14962;52.482;13.142;2024-02-21T09:08:18;20.10;;;8.82;;
27517;SDS011;14962;52.482;13.142;2024-02-21T09:10:46;21.08;;;8.25;;
27517;SDS011;14962;52.482;13.142;2024-02-21T09:13:12;21.38;;;8.27;;
27517;SDS011;14962;52.482;13.142;2024-02-21T09:15:38;24.40;;;8.15;;
27517;SDS011;14962;52.482;13.142;2024-02-21T09:18:04;21.33;;;8.63;;
27517;SDS011;14962;52.482;13.142;2024-02-21T09:20:30;17.13;;;8.02;;
27517;SDS011;14962;52.482;13.142;2024-02-21T09:22:56;19.65;;;7.35;;
27517;SDS011;14962;52.482;13.142;2024-02-21T09:25:22;22.45;;;7.85;;
27517;SDS011;14962;52.482;13.142;2024-02-21T09:27:48;20.77;;;7.82;;
27517;SDS011;14962;52.482;13.142;2024-02-21T09:30:14;17.52;;;7.95;;
27517;SDS011;14962;52.482;13.142;2024-02-21T09:32:40;18.38;;;7.88;;
27517;SDS011;14962;52.482;13.142;2024-02-21T09:35:06;17.83;;;6.93;;
27517;SDS011;14962;52.482;13.142;2024-02-21T09:37:32;21.85;;;8.40;;
27517;SDS011;14962;52.482;13.142;2024-02-21T09:39:58;22.25;;;7.25;;
27517;SDS011;14962;52.482;13.142;2024-02-21T09:42:37;15.38;;;7.15;;
27517;SDS011;14962;52.482;13.142;2024-02-21T09:45:06;19.83;;;6.80;;
27517;SDS011;14962;52.482;13.142;2024-02-21T09:47:40;17.65;;;7.43;;
27517;SDS011;14962;52.482;13.142;2024-02-21T09:50:09;16.10;;;7.10;;
27517;SDS011;14962;52.482;13.142;2024-02-21T09:52:36;18.55;;;7.70;;
27517;SDS011;14962;52.482;13.142;2024-02-21T09:55:02;19.75;;;7.60;;
27517;SDS011;14962;52.482;13.142;2024-02-21T09:57:30;18.90;;;6.82;;
27517;SDS011;14962;52.482;13.142;2024-02-21T09:59:56;12.15;;;6.55;;
27517;SDS011;14962;52.482;13.142;2024-02-21T10:02:24;20.73;;;7.50;;
27517;SDS011;14962;52.482;13.142;2024-02-21T10:04:50;13.52;;;6.85;;
27517;SDS011;14962;52.482;13.142;2024-02-21T10:07:16;14.75;;;7.57;;
27517;SDS011;14962;52.482;13.142;2024-02-21T10:09:47;16.55;;;7.00;;
27517;SDS011;14962;52.482;13.142;2024-02-21T10:12:13;19.58;;;6.82;;
27517;SDS011;14962;52.482;13.142;2024-02-21T10:14:42;17.58;;;6.97;;
27517;SDS011;14962;52.482;13.142;2024-02-21T10:17:14;14.95;;;6.53;;
27517;SDS011;14962;52.482;13.142;2024-02-21T10:19:41;24.17;;;7.20;;
27517;SDS011;14962;52.482;13.142;2024-02-21T10:22:07;24.77;;;8.07;;
27517;SDS011;14962;52.482;13.142;2024-02-21T10:24:33;15.25;;;7.20;;
27517;SDS011;14962;52.482;13.142;2024-02-21T10:27:01;16.45;;;7.00;;
27517;SDS011;14962;52.482;13.142;2024-02-21T10:29:28;13.30;;;7.13;;
27517;SDS011;14962;52.482;13.142;2024-02-21T10:32:03;13.55;;;6.50;;
27517;SDS011;14962;52.482;13.142;2024-02-21T10:34:29;16.85;;;7.18;;
27517;SDS011;14962;52.482;13.142;2024-02-21T10:37:02;16.55;;;7.32;;
27517;SDS011;14962;52.482;13.142;2024-02-21T10:39:28;12.57;;;6.20;;
27517;SDS011;14962;52.482;13.142;2024-02-21T10:41:54;13.90;;;6.63;;
27517;SDS011;14962;52.482;13.142;2024-02-21T10:44:22;16.58;;;6.80;;
27517;SDS011;14962;52.482;13.142;2024-02-21T10:46:49;15.48;;;7.10;;
27517;SDS011;14962;52.482;13.142;2024-02-21T10:49:24;12.63;;;6.50;;
27517;SDS011;14962;52.482;13.142;2024-02-21T10:51:53;15.45;;;7.00;;
27517;SDS011;14962;52.482;13.142;2024-02-21T10:54:26;19.35;;;6.63;;
27517;SDS011;14962;52.482;13.142;2024-02-21T10:56:54;19.40;;;6.95;;
27517;SDS011;14962;52.482;13.142;2024-02-21T10:59:22;13.30;;;6.47;;
27517;SDS011;14962;52.482;13.142;2024-02-21T11:01:48;11.93;;;6.43;;
27517;SDS011;14962;52.482;13.142;2024-02-21T11:04:14;19.75;;;6.47;;
27517;SDS011;14962;52.482;13.142;2024-02-21T11:06:41;20.63;;;6.38;;
27517;SDS011;14962;52.482;13.142;2024-02-21T11:09:08;15.15;;;5.38;;
27517;SDS011;14962;52.482;13.142;2024-02-21T11:11:37;9.57;;;5.15;;
27517;SDS011;14962;52.482;13.142;2024-02-21T11:14:07;12.68;;;5.10;;
27517;SDS011;14962;52.482;13.142;2024-02-21T11:16:37;11.95;;;5.32;;
27517;SDS011;14962;52.482;13.142;2024-02-21T11:19:05;10.93;;;5.25;;
27517;SDS011;14962;52.482;13.142;2024-02-21T11:21:34;10.23;;;5.40;;
27517;SDS011;14962;52.482;13.142;2024-02-21T11:24:03;10.85;;;4.82;;
27517;SDS011;14962;52.482;13.142;2024-02-21T11:26:30;14.10;;;5.22;;
27517;SDS011;14962;52.482;13.142;2024-02-21T11:28:57;7.95;;;4.47;;
27517;SDS011;14962;52.482;13.142;2024-02-21T11:31:24;9.63;;;4.80;;
27517;SDS011;14962;52.482;13.142;2024-02-21T11:33:52;10.38;;;4.20;;
27517;SDS011;14962;52.482;13.142;2024-02-21T11:36:27;11.05;;;4.40;;
27517;SDS011;14962;52.482;13.142;2024-02-21T11:38:53;11.80;;;3.72;;
27517;SDS011;14962;52.482;13.142;2024-02-21T11:41:19;10.65;;;3.90;;
27517;SDS011;14962;52.482;13.142;2024-02-21T11:43:46;9.73;;;3.55;;
27517;SDS011;14962;52.482;13.142;2024-02-21T11:46:12;12.18;;;4.22;;
27517;SDS011;14962;52.482;13.142;2024-02-21T11:48:40;10.50;;;3.63;;
27517;SDS011;14962;52.482;13.142;2024-02-21T11:51:08;8.20;;;3.13;;
27517;SDS011;14962;52.482;13.142;2024-02-21T11:53:34;7.45;;;3.67;;
27517;SDS011;14962;52.482;13.142;2024-02-21T11:56:00;6.70;;;3.58;;
27517;SDS011;14962;52.482;13.142;2024-02-21T11:58:26;6.10;;;3.40;;
27517;SDS011;14962;52.482;13.142;2024-02-21T12:00:52;10.63;;;4.13;;
27517;SDS011;14962;52.482;13.142;2024-02-21T12:03:18;8.82;;;3.60;;
27517;SDS011;14962;52.482;13.142;2024-02-21T12:05:44;9.82;;;3.58;;
27517;SDS011;14962;52.482;13.142;2024-02-21T12:08:11;15.65;;;3.30;;
27517;SDS011;14962;52.482;13.142;2024-02-21T12:10:37;7.05;;;3.13;;
27517;SDS011;14962;52.482;13.142;2024-02-21T12:13:09;4.10;;;2.53;;
27517;SDS011;14962;52.482;13.142;2024-02-21T12:15:35;5.53;;;2.40;;
27517;SDS011;14962;52.482;13.142;2024-02-21T12:18:01;6.10;;;2.10;;
27517;SDS011;14962;52.482;13.142;2024-02-21T12:20:27;5.10;;;2.60;;
27517;SDS011;14962;52.482;13.142;2024-02-21T12:22:53;5.68;;;2.17;;
27517;SDS011;14962;52.482;13.142;2024-02-21T12:25:20;8.75;;;2.78;;
27517;SDS011;14962;52.482;13.142;2024-02-21T12:27:51;7.10;;;2.67;;
27517;SDS011;14962;52.482;13.142;2024-02-21T12:30:17;6.82;;;2.70;;
27517;SDS011;14962;52.482;13.142;2024-02-21T12:32:44;6.72;;;2.55;;
27517;SDS011;14962;52.482;13.142;2024-02-21T12:35:10;6.60;;;2.63;;
27517;SDS011;14962;52.482;13.142;2024-02-21T12:37:36;5.72;;;2.50;;
27517;SDS011;14962;52.482;13.142;2024-02-21T12:40:03;10.02;;;3.53;;
27517;SDS011;14962;52.482;13.142;2024-02-21T12:42:31;6.97;;;2.72;;
27517;SDS011;14962;52.482;13.142;2024-02-21T12:44:58;7.68;;;2.67;;
27517;SDS011;14962;52.482;13.142;2024-02-21T12:47:24;7.53;;;3.10;;
27517;SDS011;14962;52.482;13.142;2024-02-21T12:49:51;12.60;;;3.30;;
27517;SDS011;14962;52.482;13.142;2024-02-21T12:52:17;8.60;;;3.58;;
27517;SDS011;14962;52.482;13.142;2024-02-21T12:54:43;5.07;;;2.97;;
27517;SDS011;14962;52.482;13.142;2024-02-21T12:57:09;6.30;;;3.08;;
27517;SDS011;14962;52.482;13.142;2024-02-21T12:59:35;6.60;;;3.28;;
27517;SDS011;14962;52.482;13.142;2024-02-21T13:02:01;4.75;;;2.80;;
27517;SDS011;14962;52.482;13.142;2024-02-21T13:04:27;5.78;;;2.40;;
27517;SDS011;14962;52.482;13.142;2024-02-21T13:06:53;7.00;;;2.72;;
27517;SDS011;14962;52.482;13.142;2024-02-21T13:09:20;9.88;;;2.55;;
27517;SDS011;14962;52.482;13.142;2024-02-21T13:11:46;5.72;;;2.42;;
27517;SDS011;14962;52.482;13.142;2024-02-21T13:14:13;7.68;;;2.63;;
27517;SDS011;14962;52.482;13.142;2024-02-21T13:16:38;9.35;;;2.53;;
27517;SDS011;14962;52.482;13.142;2024-02-21T13:19:05;11.95;;;3.05;;
27517;SDS011;14962;52.482;13.142;2024-02-21T13:21:32;5.88;;;2.85;;
27517;SDS011;14962;52.482;13.142;2024-02-21T13:23:57;8.60;;;2.70;;
27517;SDS011;14962;52.482;13.142;2024-02-21T13:26:23;7.05;;;2.33;;
27517;SDS011;14962;52.482;13.142;2024-02-21T13:28:49;7.63;;;2.75;;
27517;SDS011;14962;52.482;13.142;2024-02-21T13:31:15;9.23;;;2.78;;
27517;SDS011;14962;52.482;13.142;2024-02-21T13:33:41;5.53;;;2.65;;
27517;SDS011;14962;52.482;13.142;2024-02-21T13:36:09;5.70;;;2.60;;
27517;SDS011;14962;52.482;13.142;2024-02-21T13:38:35;8.65;;;2.38;;
27517;SDS011;14962;52.482;13.142;2024-02-21T13:41:01;7.78;;;2.78;;
27517;SDS011;14962;52.482;13.142;2024-02-21T13:43:27;6.63;;;3.47;;
27517;SDS011;14962;52.482;13.142;2024-02-21T13:45:57;7.90;;;2.75;;
27517;SDS011;14962;52.482;13.142;2024-02-21T13:48:34;8.32;;;2.92;;
27517;SDS011;14962;52.482;13.142;2024-02-21T13:51:00;7.28;;;2.47;;
27517;SDS011;14962;52.482;13.142;2024-02-21T13:53:29;6.65;;;2.25;;
27517;SDS011;14962;52.482;13.142;2024-02-21T13:55:55;7.15;;;2.17;;
27517;SDS011;14962;52.482;13.142;2024-02-21T13:58:21;12.32;;;2.30;;
27517;SDS011;14962;52.482;13.142;2024-02-21T14:00:48;3.90;;;2.03;;
27517;SDS011;14962;52.482;13.142;2024-02-21T14:03:14;8.50;;;2.55;;
27517;SDS011;14962;52.482;13.142;2024-02-21T14:05:40;3.60;;;2.10;;
27517;SDS011;14962;52.482;13.142;2024-02-21T14:08:06;6.80;;;2.60;;
27517;SDS011;14962;52.482;13.142;2024-02-21T14:10:32;8.05;;;2.22;;
27517;SDS011;14962;52.482;13.142;2024-02-21T14:12:58;4.80;;;2.30;;
27517;SDS011;14962;52.482;13.142;2024-02-21T14:15:25;7.25;;;2.17;;
27517;SDS011;14962;52.482;13.142;2024-02-21T14:17:51;7.68;;;2.40;;
27517;SDS011;14962;52.482;13.142;2024-02-21T14:20:17;9.55;;;2.17;;